createdAt,value
2023-03-30T00:01:22.550Z,1.90
2023-03-30T00:03:55.246Z,1.52
2023-03-30T00:06:24.356Z,2.05
2023-03-30T00:08:58.016Z,1.55
2023-03-30T00:11:27.754Z,1.50
2023-03-30T00:13:56.019Z,1.75
2023-03-30T00:16:24.832Z,1.40
2023-03-30T00:18:54.595Z,1.30
2023-03-30T00:21:22.882Z,1.98
2023-03-30T00:23:54.051Z,2.22
2023-03-30T00:26:22.323Z,2.03
2023-03-30T00:28:51.961Z,2.08
2023-03-30T00:31:20.395Z,1.95
2023-03-30T00:33:48.614Z,1.67
2023-03-30T00:36:18.914Z,1.55
2023-03-30T00:38:48.310Z,1.67
2023-03-30T00:41:17.879Z,1.52
2023-03-30T00:44:03.725Z,2.42
2023-03-30T00:46:32.898Z,1.60
2023-03-30T00:49:07.113Z,2.22
2023-03-30T00:51:42.599Z,1.70
2023-03-30T00:54:16.599Z,1.75
2023-03-30T00:56:45.326Z,2.55
2023-03-30T00:59:14.743Z,2.10
2023-03-30T01:01:43.314Z,2.15
2023-03-30T01:04:13.629Z,2.33
2023-03-30T01:06:46.330Z,2.63
2023-03-30T01:09:15.487Z,3.20
2023-03-30T01:11:44.660Z,2.75
2023-03-30T01:14:16.128Z,3.00
2023-03-30T01:16:52.574Z,3.00
2023-03-30T01:19:58.593Z,3.20
2023-03-30T01:23:02.003Z,3.42
2023-03-30T01:26:12.477Z,3.45
2023-03-30T01:28:47.786Z,3.05
2023-03-30T01:32:08.436Z,2.92
2023-03-30T01:34:57.875Z,2.65
2023-03-30T01:38:15.761Z,2.40
2023-03-30T01:40:53.366Z,3.53
2023-03-30T01:43:36.800Z,2.15
2023-03-30T01:46:15.170Z,2.25
2023-03-30T01:48:50.799Z,2.28
2023-03-30T01:51:24.613Z,1.75
2023-03-30T01:54:02.053Z,2.95
2023-03-30T01:56:38.608Z,2.10
2023-03-30T01:59:13.455Z,2.30
2023-03-30T02:01:50.067Z,2.22
2023-03-30T02:04:23.860Z,2.33
2023-03-30T02:07:00.450Z,2.13
2023-03-30T02:09:32.209Z,1.92
2023-03-30T02:12:04.029Z,1.98
2023-03-30T02:14:35.603Z,2.30
2023-03-30T02:17:13.719Z,1.98
2023-03-30T02:19:46.055Z,2.08
2023-03-30T02:22:16.947Z,2.53
2023-03-30T02:24:49.161Z,2.13
2023-03-30T02:27:22.192Z,2.03
2023-03-30T02:29:50.750Z,2.45
2023-03-30T02:32:24.258Z,2.20
2023-03-30T02:35:22.218Z,2.42
2023-03-30T02:38:25.791Z,2.25
2023-03-30T02:41:08.705Z,2.08
2023-03-30T02:43:53.519Z,2.20
2023-03-30T02:46:49.145Z,2.10
2023-03-30T02:49:28.910Z,2.58
2023-03-30T02:52:11.118Z,2.38
2023-03-30T02:54:53.498Z,2.03
2023-03-30T02:57:58.967Z,1.95
2023-03-30T03:00:47.629Z,2.05
2023-03-30T03:03:28.367Z,2.13
2023-03-30T03:06:02.783Z,2.05
2023-03-30T03:08:38.895Z,1.92
2023-03-30T03:11:09.259Z,2.15
2023-03-30T03:13:38.910Z,2.30
2023-03-30T03:16:12.129Z,2.58
2023-03-30T03:18:46.106Z,2.25
2023-03-30T03:21:15.017Z,2.50
2023-03-30T03:23:48.346Z,3.08
2023-03-30T03:26:19.956Z,2.30
2023-03-30T03:28:48.173Z,2.70
2023-03-30T03:31:18.384Z,2.90
2023-03-30T03:33:47.308Z,3.10
2023-03-30T03:36:26.559Z,2.75
2023-03-30T03:38:55.538Z,2.17
2023-03-30T03:41:23.879Z,2.80
2023-03-30T03:43:52.317Z,2.78
2023-03-30T03:46:22.420Z,2.90
2023-03-30T03:48:50.681Z,2.72
2023-03-30T03:51:19.044Z,2.92
2023-03-30T03:53:49.651Z,2.33
2023-03-30T03:56:18.002Z,2.33
2023-03-30T03:58:46.473Z,2.60
2023-03-30T04:01:16.279Z,3.08
2023-03-30T04:03:46.072Z,2.78
2023-03-30T04:06:14.330Z,2.60
2023-03-30T04:08:42.563Z,3.22
2023-03-30T04:11:22.323Z,2.75
2023-03-30T04:14:09.230Z,2.75
2023-03-30T04:16:46.856Z,2.60
2023-03-30T04:19:37.529Z,3.78
2023-03-30T04:22:19.767Z,2.65
2023-03-30T04:25:09.805Z,2.45
2023-03-30T04:28:04.929Z,3.05
2023-03-30T04:31:00.175Z,3.10
2023-03-30T04:34:04.878Z,2.53
2023-03-30T04:36:45.590Z,3.13
2023-03-30T04:39:39.852Z,3.47
2023-03-30T04:42:38.559Z,3.83
2023-03-30T04:45:30.276Z,3.13
2023-03-30T04:48:01.145Z,2.58
2023-03-30T04:50:52.211Z,3.25
2023-03-30T04:53:44.932Z,3.08
2023-03-30T04:56:35.684Z,2.88
2023-03-30T04:59:22.544Z,3.58
2023-03-30T05:02:14.787Z,3.45
2023-03-30T05:05:11.790Z,4.35
2023-03-30T05:08:01.953Z,3.67
2023-03-30T05:10:51.763Z,3.13
2023-03-30T05:13:51.997Z,3.47
2023-03-30T05:16:44.040Z,2.90
2023-03-30T05:19:35.111Z,2.97
2023-03-30T05:22:23.256Z,3.20
2023-03-30T05:25:09.041Z,3.00
2023-03-30T05:27:53.231Z,3.78
2023-03-30T05:30:29.623Z,3.22
2023-03-30T05:33:27.098Z,3.25
2023-03-30T05:36:14.861Z,3.20
2023-03-30T05:39:06.421Z,3.50
2023-03-30T05:42:04.375Z,3.33
2023-03-30T05:44:42.069Z,3.25
2023-03-30T05:47:29.001Z,3.20
2023-03-30T05:50:20.542Z,3.42
2023-03-30T05:53:02.223Z,2.97
2023-03-30T05:55:39.415Z,3.88
2023-03-30T05:58:26.175Z,3.75
2023-03-30T06:01:15.961Z,3.20
2023-03-30T06:03:46.772Z,3.55
2023-03-30T06:06:15.500Z,3.35
2023-03-30T06:08:47.235Z,3.45
2023-03-30T06:11:19.256Z,3.35
2023-03-30T06:13:54.677Z,3.78
2023-03-30T06:16:24.515Z,3.63
2023-03-30T06:18:53.277Z,3.88
2023-03-30T06:21:23.174Z,3.80
2023-03-30T06:24:11.623Z,3.53
2023-03-30T06:26:41.846Z,3.80
2023-03-30T06:29:10.042Z,3.20
2023-03-30T06:31:41.120Z,3.22
2023-03-30T06:34:47.512Z,3.97
2023-03-30T06:37:16.589Z,3.00
2023-03-30T06:39:46.502Z,3.42
2023-03-30T06:42:15.035Z,3.45
2023-03-30T06:45:03.461Z,3.30
2023-03-30T06:47:34.199Z,3.40
2023-03-30T06:50:02.751Z,3.90
2023-03-30T06:52:54.127Z,3.70
2023-03-30T06:55:23.977Z,4.30
2023-03-30T06:57:52.149Z,2.97
2023-03-30T07:00:22.043Z,3.33
2023-03-30T07:03:10.178Z,3.95
2023-03-30T07:05:47.886Z,3.95
2023-03-30T07:08:22.273Z,4.30
2023-03-30T07:10:54.340Z,4.28
2023-03-30T07:13:25.096Z,3.50
2023-03-30T07:15:53.931Z,3.55
2023-03-30T07:18:23.681Z,3.40
2023-03-30T07:20:52.163Z,3.85
2023-03-30T07:23:22.398Z,3.28
2023-03-30T07:25:53.543Z,3.35
2023-03-30T07:28:27.110Z,4.18
2023-03-30T07:30:55.542Z,5.47
2023-03-30T07:33:29.692Z,4.45
2023-03-30T07:35:58.099Z,4.07
2023-03-30T07:38:28.238Z,3.90
2023-03-30T07:40:56.967Z,3.00
2023-03-30T07:43:27.317Z,3.35
2023-03-30T07:45:57.521Z,3.10
2023-03-30T07:48:33.903Z,4.80
2023-03-30T07:51:04.165Z,4.43
2023-03-30T07:53:34.847Z,4.47
2023-03-30T07:56:06.833Z,3.45
2023-03-30T07:58:43.423Z,3.75
2023-03-30T08:01:13.164Z,3.45
2023-03-30T08:04:02.400Z,3.53
2023-03-30T08:06:32.378Z,4.53
2023-03-30T08:09:02.643Z,3.90
2023-03-30T08:11:33.008Z,3.35
2023-03-30T08:14:01.653Z,4.13
2023-03-30T08:16:29.881Z,3.95
2023-03-30T08:18:58.528Z,3.67
2023-03-30T08:21:28.140Z,4.05
2023-03-30T08:23:58.865Z,3.78
2023-03-30T08:26:28.201Z,5.88
2023-03-30T08:28:56.917Z,4.65
2023-03-30T08:31:25.199Z,3.88
2023-03-30T08:33:53.520Z,4.10
2023-03-30T08:36:21.636Z,5.30
2023-03-30T08:38:51.911Z,4.22
2023-03-30T08:42:03.548Z,4.57
2023-03-30T08:44:38.102Z,5.00
2023-03-30T08:47:13.415Z,5.30
2023-03-30T08:49:51.709Z,4.13
2023-03-30T08:52:25.908Z,4.30
2023-03-30T08:54:55.861Z,4.38
2023-03-30T08:57:42.811Z,4.15
2023-03-30T09:00:27.563Z,4.50
2023-03-30T09:03:08.996Z,4.15
2023-03-30T09:05:47.146Z,3.90
2023-03-30T09:08:21.558Z,4.47
2023-03-30T09:10:58.829Z,4.72
2023-03-30T09:13:33.690Z,4.20
2023-03-30T09:16:15.271Z,3.80
2023-03-30T09:18:47.622Z,4.25
2023-03-30T09:21:17.084Z,5.15
2023-03-30T09:23:45.449Z,6.43
2023-03-30T09:26:28.665Z,6.43
2023-03-30T09:29:07.308Z,5.65
2023-03-30T09:31:41.824Z,5.35
2023-03-30T09:34:26.072Z,5.05
2023-03-30T09:37:01.921Z,4.78
2023-03-30T09:39:33.492Z,5.03
2023-03-30T09:42:19.699Z,4.47
2023-03-30T09:44:53.339Z,4.13
2023-03-30T09:47:26.845Z,4.40
2023-03-30T09:50:04.009Z,4.50
2023-03-30T09:52:36.959Z,6.03
2023-03-30T09:55:30.294Z,6.38
2023-03-30T09:58:17.358Z,5.68
2023-03-30T10:00:46.986Z,6.53
2023-03-30T10:03:23.678Z,5.68
2023-03-30T10:06:06.229Z,4.50
2023-03-30T10:08:44.273Z,4.45
2023-03-30T10:11:13.097Z,4.95
2023-03-30T10:13:44.593Z,5.30
2023-03-30T10:16:25.968Z,5.25
2023-03-30T10:18:57.787Z,4.30
2023-03-30T10:21:31.723Z,4.60
2023-03-30T10:24:22.073Z,4.45
2023-03-30T10:26:55.283Z,4.07
2023-03-30T10:29:28.177Z,4.13
2023-03-30T10:32:02.616Z,4.60
2023-03-30T10:34:39.282Z,3.88
2023-03-30T10:37:13.248Z,4.00
2023-03-30T10:39:44.173Z,4.45
2023-03-30T10:42:20.080Z,4.15
2023-03-30T10:44:54.759Z,4.85
2023-03-30T10:47:49.747Z,4.60
2023-03-30T10:50:32.660Z,4.20
2023-03-30T10:53:19.558Z,5.20
2023-03-30T10:55:57.913Z,5.97
2023-03-30T10:58:44.808Z,5.43
2023-03-30T11:01:22.993Z,5.57
2023-03-30T11:04:04.531Z,4.50
2023-03-30T11:06:47.389Z,4.00
2023-03-30T11:09:23.016Z,4.05
2023-03-30T11:11:58.101Z,3.70
2023-03-30T11:14:38.539Z,5.20
2023-03-30T11:17:14.274Z,4.05
2023-03-30T11:19:51.267Z,4.35
2023-03-30T11:22:36.210Z,4.57
2023-03-30T11:25:16.988Z,5.47
2023-03-30T11:27:56.420Z,6.28
2023-03-30T11:30:31.056Z,3.83
2023-03-30T11:33:17.744Z,5.38
2023-03-30T11:35:51.910Z,4.22
2023-03-30T11:38:27.492Z,4.53
2023-03-30T11:41:01.585Z,4.38
2023-03-30T11:43:31.487Z,4.53
2023-03-30T11:46:07.780Z,4.10
2023-03-30T11:49:05.784Z,3.85
2023-03-30T11:52:05.396Z,3.58
2023-03-30T11:55:19.087Z,3.67
2023-03-30T11:58:03.163Z,3.28
2023-03-30T12:00:49.233Z,3.38
2023-03-30T12:03:38.032Z,2.45
2023-03-30T12:06:27.641Z,2.55
2023-03-30T12:09:24.433Z,3.17
2023-03-30T12:12:00.155Z,2.95
2023-03-30T12:14:59.784Z,2.42
2023-03-30T12:17:51.030Z,2.33
2023-03-30T12:20:35.045Z,2.10
2023-03-30T12:23:26.962Z,2.42
2023-03-30T12:26:12.386Z,2.22
2023-03-30T12:29:05.025Z,2.78
2023-03-30T12:32:05.831Z,3.40
2023-03-30T12:34:37.094Z,3.25
2023-03-30T12:37:13.091Z,3.63
2023-03-30T12:39:49.290Z,2.50
2023-03-30T12:42:27.611Z,2.97
2023-03-30T12:45:27.965Z,2.92
2023-03-30T12:48:28.129Z,2.60
2023-03-30T12:51:13.179Z,2.70
2023-03-30T12:54:09.437Z,2.20
2023-03-30T12:56:52.839Z,1.90
2023-03-30T13:00:01.102Z,2.05
2023-03-30T13:03:22.673Z,1.98
2023-03-30T13:05:54.648Z,2.22
2023-03-30T13:08:33.308Z,2.22
2023-03-30T13:11:12.743Z,2.10
2023-03-30T13:13:56.219Z,2.30
2023-03-30T13:16:49.447Z,2.42
2023-03-30T13:19:29.472Z,2.13
2023-03-30T13:22:05.856Z,2.53
2023-03-30T13:24:44.506Z,2.28
2023-03-30T13:27:27.027Z,2.15
2023-03-30T13:30:00.505Z,1.58
2023-03-30T13:32:53.581Z,2.00
2023-03-30T13:36:01.934Z,1.70
2023-03-30T13:39:01.362Z,2.10
2023-03-30T13:41:58.213Z,2.17
2023-03-30T13:44:48.041Z,2.20
2023-03-30T13:47:48.081Z,2.78
2023-03-30T13:50:26.544Z,3.35
2023-03-30T13:52:59.981Z,2.15
2023-03-30T13:55:33.430Z,3.05
2023-03-30T13:58:10.952Z,2.63
2023-03-30T14:00:48.908Z,2.88
2023-03-30T14:03:39.502Z,2.85
2023-03-30T14:06:17.615Z,2.38
2023-03-30T14:08:50.116Z,1.75
2023-03-30T14:11:22.372Z,2.70
2023-03-30T14:13:53.990Z,2.10
2023-03-30T14:16:26.427Z,2.25
2023-03-30T14:19:13.173Z,2.78
2023-03-30T14:21:46.161Z,3.00
2023-03-30T14:24:17.716Z,2.53
2023-03-30T14:26:50.210Z,3.28
2023-03-30T14:29:31.290Z,3.05
2023-03-30T14:32:08.936Z,3.10
2023-03-30T14:34:40.076Z,2.28
2023-03-30T14:37:11.827Z,2.65
2023-03-30T14:39:44.766Z,2.33
2023-03-30T14:42:20.283Z,2.05
2023-03-30T14:44:52.293Z,2.85
2023-03-30T14:47:24.648Z,3.38
2023-03-30T14:49:59.143Z,3.30
2023-03-30T14:52:34.330Z,3.72
2023-03-30T14:55:08.391Z,2.65
2023-03-30T14:57:41.381Z,2.97
2023-03-30T15:00:20.429Z,2.88
2023-03-30T15:02:54.182Z,3.22
2023-03-30T15:05:27.720Z,6.22
2023-03-30T15:07:56.639Z,2.90
2023-03-30T15:10:34.758Z,2.45
2023-03-30T15:13:07.562Z,3.70
2023-03-30T15:15:37.177Z,2.60
2023-03-30T15:18:06.683Z,2.55
2023-03-30T15:20:36.412Z,2.50
2023-03-30T15:23:07.283Z,2.38
2023-03-30T15:25:36.743Z,1.90
2023-03-30T15:28:08.629Z,2.00
2023-03-30T15:30:42.519Z,2.00
2023-03-30T15:33:23.546Z,2.40
2023-03-30T15:35:54.976Z,1.60
2023-03-30T15:38:34.056Z,1.90
2023-03-30T15:41:02.883Z,2.17
2023-03-30T15:43:33.460Z,2.05
2023-03-30T15:46:07.379Z,2.15
2023-03-30T15:48:43.368Z,2.13
2023-03-30T15:51:17.845Z,2.20
2023-03-30T15:53:55.561Z,4.40
2023-03-30T15:56:30.336Z,3.42
2023-03-30T15:58:59.637Z,4.15
2023-03-30T16:01:43.293Z,2.95
2023-03-30T16:04:16.348Z,2.88
2023-03-30T16:06:47.506Z,2.10
2023-03-30T16:09:16.473Z,3.13
2023-03-30T16:11:46.359Z,4.32
2023-03-30T16:14:20.032Z,3.70
2023-03-30T16:16:48.891Z,1.52
2023-03-30T16:19:21.043Z,2.45
2023-03-30T16:21:53.263Z,2.50
2023-03-30T16:24:22.359Z,1.90
2023-03-30T16:26:50.495Z,1.98
2023-03-30T16:29:22.476Z,2.72
2023-03-30T16:31:51.645Z,2.58
2023-03-30T16:34:21.789Z,3.38
2023-03-30T16:36:52.242Z,6.57
2023-03-30T16:39:23.855Z,3.00
2023-03-30T16:41:53.005Z,3.53
2023-03-30T16:44:24.154Z,2.38
2023-03-30T16:46:53.277Z,1.83
2023-03-30T16:49:24.580Z,2.00
2023-03-30T16:51:58.005Z,2.90
2023-03-30T16:54:32.417Z,2.72
2023-03-30T16:57:02.413Z,3.28
2023-03-30T16:59:32.772Z,2.33
2023-03-30T17:02:02.425Z,2.30
2023-03-30T17:04:30.619Z,2.53
2023-03-30T17:07:00.511Z,2.75
2023-03-30T17:09:29.865Z,2.40
2023-03-30T17:11:58.070Z,5.32
2023-03-30T17:14:27.616Z,3.75
2023-03-30T17:16:56.026Z,3.67
2023-03-30T17:19:24.322Z,3.22
2023-03-30T17:21:53.101Z,2.90
2023-03-30T17:24:22.757Z,6.80
2023-03-30T17:26:50.979Z,4.57
2023-03-30T17:29:19.263Z,5.97
2023-03-30T17:31:47.592Z,5.55
2023-03-30T17:34:16.208Z,3.47
2023-03-30T17:36:44.453Z,4.30
2023-03-30T17:39:15.835Z,4.05
2023-03-30T17:41:45.457Z,3.50
2023-03-30T17:44:13.636Z,4.05
2023-03-30T17:46:43.610Z,3.92
2023-03-30T17:49:18.128Z,3.00
2023-03-30T17:51:47.093Z,2.42
2023-03-30T17:54:15.567Z,5.75
2023-03-30T17:56:45.085Z,4.85
2023-03-30T17:59:13.724Z,2.63
2023-03-30T18:01:42.061Z,8.60
2023-03-30T18:04:10.547Z,12.45
2023-03-30T18:06:38.849Z,19.95
2023-03-30T18:09:15.929Z,14.23
2023-03-30T18:11:45.560Z,6.18
2023-03-30T18:14:13.856Z,2.20
2023-03-30T18:16:44.174Z,1.98
2023-03-30T18:19:12.894Z,1.55
2023-03-30T18:21:41.449Z,2.80
2023-03-30T18:24:09.784Z,4.05
2023-03-30T18:26:39.837Z,2.20
2023-03-30T18:29:19.972Z,1.80
2023-03-30T18:31:48.572Z,1.75
2023-03-30T18:34:17.074Z,2.22
2023-03-30T18:36:45.300Z,1.77
2023-03-30T18:39:19.936Z,2.95
2023-03-30T18:41:48.833Z,2.58
2023-03-30T18:44:18.961Z,2.15
2023-03-30T18:46:52.353Z,2.80
2023-03-30T18:49:23.315Z,3.22
2023-03-30T18:51:52.188Z,3.60
2023-03-30T18:54:20.718Z,3.45
2023-03-30T18:56:49.662Z,2.00
2023-03-30T18:59:22.940Z,4.30
2023-03-30T19:01:51.565Z,2.47
2023-03-30T19:04:19.856Z,2.00
2023-03-30T19:06:49.243Z,1.90
2023-03-30T19:09:17.594Z,2.20
2023-03-30T19:11:46.796Z,2.00
2023-03-30T19:14:14.948Z,2.58
2023-03-30T19:16:44.539Z,2.55
2023-03-30T19:19:15.365Z,2.70
2023-03-30T19:21:46.028Z,2.67
2023-03-30T19:24:14.483Z,2.60
2023-03-30T19:26:43.784Z,1.98
2023-03-30T19:29:12.934Z,2.78
2023-03-30T19:31:41.507Z,2.47
2023-03-30T19:34:11.228Z,2.03
2023-03-30T19:36:39.674Z,2.60
2023-03-30T19:39:08.024Z,2.13
2023-03-30T19:41:36.319Z,1.90
2023-03-30T19:44:04.676Z,2.15
2023-03-30T19:46:33.168Z,1.60
2023-03-30T19:49:02.282Z,1.48
2023-03-30T19:51:34.853Z,1.85
2023-03-30T19:54:03.155Z,2.75
2023-03-30T19:56:31.430Z,2.50
2023-03-30T19:58:59.834Z,1.73
2023-03-30T20:01:31.551Z,2.22
2023-03-30T20:04:00.866Z,1.63
2023-03-30T20:06:33.348Z,1.77
2023-03-30T20:09:01.864Z,1.63
2023-03-30T20:11:30.376Z,1.42
2023-03-30T20:13:58.928Z,1.40
2023-03-30T20:16:30.041Z,1.70
2023-03-30T20:19:00.054Z,1.20
2023-03-30T20:21:28.498Z,1.75
2023-03-30T20:23:59.894Z,1.58
2023-03-30T20:26:29.274Z,1.65
2023-03-30T20:28:57.892Z,2.85
2023-03-30T20:31:26.700Z,1.95
2023-03-30T20:33:55.432Z,1.20
2023-03-30T20:36:25.302Z,1.92
2023-03-30T20:38:55.097Z,3.17
2023-03-30T20:41:24.920Z,2.03
2023-03-30T20:43:57.361Z,1.85
2023-03-30T20:46:34.820Z,2.30
2023-03-30T20:49:03.828Z,2.22
2023-03-30T20:51:32.618Z,2.78
2023-03-30T20:54:01.130Z,4.18
2023-03-30T20:56:30.891Z,3.88
2023-03-30T20:58:59.719Z,6.60
2023-03-30T21:01:30.127Z,2.90
2023-03-30T21:04:00.353Z,2.42
2023-03-30T21:06:31.594Z,1.60
2023-03-30T21:09:05.237Z,1.58
2023-03-30T21:11:38.966Z,2.08
2023-03-30T21:14:09.293Z,1.65
2023-03-30T21:16:38.398Z,1.58
2023-03-30T21:19:07.232Z,1.90
2023-03-30T21:21:37.359Z,1.58
2023-03-30T21:24:06.986Z,1.35
2023-03-30T21:26:36.961Z,1.58
2023-03-30T21:29:05.765Z,1.70
2023-03-30T21:31:34.142Z,1.75
2023-03-30T21:34:02.483Z,1.40
2023-03-30T21:36:30.972Z,1.90
2023-03-30T21:39:00.786Z,1.63
2023-03-30T21:41:30.313Z,2.38
2023-03-30T21:44:00.057Z,1.90
2023-03-30T21:46:28.832Z,2.47
2023-03-30T21:48:57.059Z,1.90
2023-03-30T21:51:28.159Z,1.90
2023-03-30T21:53:58.406Z,1.70
2023-03-30T21:56:30.024Z,1.98
2023-03-30T21:59:00.307Z,1.70
2023-03-30T22:01:28.939Z,2.10
2023-03-30T22:03:57.648Z,1.88
2023-03-30T22:06:26.134Z,1.83
2023-03-30T22:08:57.115Z,1.50
2023-03-30T22:11:27.018Z,1.83
2023-03-30T22:13:55.650Z,2.42
2023-03-30T22:16:29.854Z,1.65
2023-03-30T22:18:58.017Z,2.17
2023-03-30T22:21:29.239Z,2.42
2023-03-30T22:23:57.649Z,1.35
2023-03-30T22:26:27.238Z,1.80
2023-03-30T22:28:55.798Z,1.40
2023-03-30T22:31:26.631Z,1.15
2023-03-30T22:33:56.209Z,1.20
2023-03-30T22:36:29.875Z,1.25
2023-03-30T22:39:00.504Z,1.30
2023-03-30T22:41:29.321Z,1.77
2023-03-30T22:43:59.326Z,1.70
2023-03-30T22:46:29.157Z,1.40
2023-03-30T22:48:57.422Z,1.27
2023-03-30T22:51:27.120Z,1.45
2023-03-30T22:53:59.198Z,1.48
2023-03-30T22:56:29.495Z,1.88
2023-03-30T22:58:58.390Z,1.80
2023-03-30T23:01:32.123Z,1.92
2023-03-30T23:04:01.816Z,1.63
2023-03-30T23:06:31.161Z,2.10
2023-03-30T23:09:01.517Z,1.83
2023-03-30T23:11:29.974Z,1.73
2023-03-30T23:14:05.238Z,1.38
2023-03-30T23:16:37.378Z,1.42
2023-03-30T23:19:07.280Z,1.33
2023-03-30T23:21:36.224Z,1.08
2023-03-30T23:24:07.305Z,1.80
2023-03-30T23:26:35.957Z,1.73
2023-03-30T23:29:04.575Z,1.08
2023-03-30T23:31:34.558Z,1.30
2023-03-30T23:34:02.889Z,1.50
2023-03-30T23:36:31.244Z,0.90
2023-03-30T23:38:59.479Z,1.63
2023-03-30T23:41:28.912Z,1.10
2023-03-30T23:43:57.127Z,1.40
2023-03-30T23:46:25.493Z,1.95
2023-03-30T23:48:55.141Z,1.42
2023-03-30T23:51:23.416Z,1.77
2023-03-30T23:53:54.401Z,1.80
2023-03-30T23:56:29.798Z,1.58
2023-03-30T23:58:59.080Z,1.10
